sensor_id;sensor_type;location;lat;lon;timestamp;temperature;humidity
22633;DHT22;11483;55.828;37.488;2022-09-16T00:01:59;11.10;99.90
22633;DHT22;11483;55.828;37.488;2022-09-16T00:04:25;11.00;99.90
22633;DHT22;11483;55.828;37.488;2022-09-16T00:06:50;11.00;99.90
22633;DHT22;11483;55.828;37.488;2022-09-16T00:09:16;10.90;99.90
22633;DHT22;11483;55.828;37.488;2022-09-16T00:11:42;11.00;99.90
22633;DHT22;11483;55.828;37.488;2022-09-16T00:14:09;11.00;99.90
22633;DHT22;11483;55.828;37.488;2022-09-16T00:16:34;11.10;99.90
22633;DHT22;11483;55.828;37.488;2022-09-16T00:19:00;11.10;99.90
22633;DHT22;11483;55.828;37.488;2022-09-16T00:21:29;11.10;99.90
22633;DHT22;11483;55.828;37.488;2022-09-16T00:23:55;11.10;99.90
22633;DHT22;11483;55.828;37.488;2022-09-16T00:26:22;11.00;99.90
22633;DHT22;11483;55.828;37.488;2022-09-16T00:28:48;11.00;99.90
22633;DHT22;11483;55.828;37.488;2022-09-16T00:31:15;10.90;99.90
22633;DHT22;11483;55.828;37.488;2022-09-16T00:33:41;10.90;99.90
22633;DHT22;11483;55.828;37.488;2022-09-16T00:38:35;10.90;99.90
22633;DHT22;11483;55.828;37.488;2022-09-16T00:41:01;10.90;99.90
22633;DHT22;11483;55.828;37.488;2022-09-16T00:43:27;10.90;99.90
22633;DHT22;11483;55.828;37.488;2022-09-16T00:46:00;10.90;99.90
22633;DHT22;11483;55.828;37.488;2022-09-16T00:48:29;11.00;99.90
22633;DHT22;11483;55.828;37.488;2022-09-16T00:51:02;11.10;99.90
22633;DHT22;11483;55.828;37.488;2022-09-16T00:53:36;11.10;99.90
22633;DHT22;11483;55.828;37.488;2022-09-16T00:56:06;11.30;99.90
22633;DHT22;11483;55.828;37.488;2022-09-16T01:01:05;11.20;99.90
22633;DHT22;11483;55.828;37.488;2022-09-16T01:03:37;11.20;99.90
22633;DHT22;11483;55.828;37.488;2022-09-16T01:06:05;11.00;99.90
22633;DHT22;11483;55.828;37.488;2022-09-16T01:08:31;11.00;99.90
22633;DHT22;11483;55.828;37.488;2022-09-16T01:10:57;11.00;99.90
22633;DHT22;11483;55.828;37.488;2022-09-16T01:13:23;11.00;99.90
22633;DHT22;11483;55.828;37.488;2022-09-16T01:16:07;11.00;99.90
22633;DHT22;11483;55.828;37.488;2022-09-16T01:21:56;10.90;99.90
22633;DHT22;11483;55.828;37.488;2022-09-16T01:27:17;10.80;99.90
22633;DHT22;11483;55.828;37.488;2022-09-16T01:32:52;10.80;99.90
22633;DHT22;11483;55.828;37.488;2022-09-16T01:38:20;10.70;99.90
22633;DHT22;11483;55.828;37.488;2022-09-16T01:52:14;10.70;99.90
22633;DHT22;11483;55.828;37.488;2022-09-16T01:54:47;10.80;99.90
22633;DHT22;11483;55.828;37.488;2022-09-16T01:57:43;10.80;99.90
22633;DHT22;11483;55.828;37.488;2022-09-16T02:00:12;10.80;99.90
22633;DHT22;11483;55.828;37.488;2022-09-16T02:05:15;11.00;99.90
22633;DHT22;11483;55.828;37.488;2022-09-16T02:07:47;11.00;99.90
22633;DHT22;11483;55.828;37.488;2022-09-16T02:10:24;11.10;99.90
22633;DHT22;11483;55.828;37.488;2022-09-16T02:12:53;11.20;99.90
22633;DHT22;11483;55.828;37.488;2022-09-16T02:15:22;11.20;99.90
22633;DHT22;11483;55.828;37.488;2022-09-16T02:18:03;11.20;99.90
22633;DHT22;11483;55.828;37.488;2022-09-16T02:20:31;11.30;99.90
22633;DHT22;11483;55.828;37.488;2022-09-16T02:23:04;11.40;99.90
22633;DHT22;11483;55.828;37.488;2022-09-16T02:25:35;11.40;99.90
22633;DHT22;11483;55.828;37.488;2022-09-16T02:28:07;11.50;99.90
22633;DHT22;11483;55.828;37.488;2022-09-16T02:30:42;11.50;99.90
22633;DHT22;11483;55.828;37.488;2022-09-16T02:33:11;11.60;99.90
22633;DHT22;11483;55.828;37.488;2022-09-16T02:35:38;11.60;99.90
22633;DHT22;11483;55.828;37.488;2022-09-16T02:38:20;11.60;99.90
22633;DHT22;11483;55.828;37.488;2022-09-16T02:40:55;11.60;99.90
22633;DHT22;11483;55.828;37.488;2022-09-16T02:43:22;11.70;99.90
22633;DHT22;11483;55.828;37.488;2022-09-16T02:46:01;11.70;99.90
22633;DHT22;11483;55.828;37.488;2022-09-16T02:48:40;11.70;99.90
22633;DHT22;11483;55.828;37.488;2022-09-16T02:51:26;11.70;99.90
22633;DHT22;11483;55.828;37.488;2022-09-16T02:56:39;11.80;99.90
22633;DHT22;11483;55.828;37.488;2022-09-16T02:59:09;11.80;99.90
22633;DHT22;11483;55.828;37.488;2022-09-16T03:01:44;11.80;99.90
22633;DHT22;11483;55.828;37.488;2022-09-16T03:04:15;11.80;99.90
22633;DHT22;11483;55.828;37.488;2022-09-16T03:06:43;11.80;99.90
22633;DHT22;11483;55.828;37.488;2022-09-16T03:09:11;11.80;99.90
22633;DHT22;11483;55.828;37.488;2022-09-16T03:17:32;11.90;99.90
22633;DHT22;11483;55.828;37.488;2022-09-16T03:28:09;12.00;99.90
22633;DHT22;11483;55.828;37.488;2022-09-16T03:31:06;12.10;99.90
22633;DHT22;11483;55.828;37.488;2022-09-16T03:36:12;12.20;99.90
22633;DHT22;11483;55.828;37.488;2022-09-16T03:38:40;12.20;99.90
22633;DHT22;11483;55.828;37.488;2022-09-16T03:41:07;12.30;99.90
22633;DHT22;11483;55.828;37.488;2022-09-16T03:43:34;12.20;99.90
22633;DHT22;11483;55.828;37.488;2022-09-16T03:46:00;12.30;99.90
22633;DHT22;11483;55.828;37.488;2022-09-16T03:48:26;12.30;99.90
22633;DHT22;11483;55.828;37.488;2022-09-16T03:50:52;12.30;99.90
22633;DHT22;11483;55.828;37.488;2022-09-16T03:53:18;12.40;99.90
22633;DHT22;11483;55.828;37.488;2022-09-16T03:55:46;12.40;99.90
22633;DHT22;11483;55.828;37.488;2022-09-16T03:58:12;12.40;99.90
22633;DHT22;11483;55.828;37.488;2022-09-16T04:00:38;12.40;99.90
22633;DHT22;11483;55.828;37.488;2022-09-16T04:03:04;12.40;99.90
22633;DHT22;11483;55.828;37.488;2022-09-16T04:05:30;12.50;99.90
22633;DHT22;11483;55.828;37.488;2022-09-16T04:07:56;12.50;99.90
22633;DHT22;11483;55.828;37.488;2022-09-16T04:10:24;12.50;99.90
22633;DHT22;11483;55.828;37.488;2022-09-16T04:12:50;12.60;99.90
22633;DHT22;11483;55.828;37.488;2022-09-16T04:15:20;12.60;99.90
22633;DHT22;11483;55.828;37.488;2022-09-16T04:17:46;12.60;99.90
22633;DHT22;11483;55.828;37.488;2022-09-16T04:20:12;12.60;99.90
22633;DHT22;11483;55.828;37.488;2022-09-16T04:22:38;12.60;99.90
22633;DHT22;11483;55.828;37.488;2022-09-16T04:25:04;12.60;99.90
22633;DHT22;11483;55.828;37.488;2022-09-16T04:27:30;12.70;99.90
22633;DHT22;11483;55.828;37.488;2022-09-16T04:29:56;12.70;99.90
22633;DHT22;11483;55.828;37.488;2022-09-16T04:32:23;12.70;99.90
22633;DHT22;11483;55.828;37.488;2022-09-16T04:34:49;12.70;99.90
22633;DHT22;11483;55.828;37.488;2022-09-16T04:37:15;12.70;99.90
22633;DHT22;11483;55.828;37.488;2022-09-16T04:39:41;12.80;99.90
22633;DHT22;11483;55.828;37.488;2022-09-16T04:42:07;12.80;99.90
22633;DHT22;11483;55.828;37.488;2022-09-16T04:44:32;12.80;99.90
22633;DHT22;11483;55.828;37.488;2022-09-16T04:46:58;12.80;99.90
22633;DHT22;11483;55.828;37.488;2022-09-16T04:49:25;12.90;99.90
22633;DHT22;11483;55.828;37.488;2022-09-16T04:51:51;12.80;99.90
22633;DHT22;11483;55.828;37.488;2022-09-16T04:54:17;12.80;99.90
22633;DHT22;11483;55.828;37.488;2022-09-16T04:56:43;12.80;99.90
22633;DHT22;11483;55.828;37.488;2022-09-16T04:59:09;12.80;99.90
22633;DHT22;11483;55.828;37.488;2022-09-16T05:01:37;12.80;99.90
22633;DHT22;11483;55.828;37.488;2022-09-16T05:04:03;12.90;99.90
22633;DHT22;11483;55.828;37.488;2022-09-16T05:06:30;13.00;99.90
22633;DHT22;11483;55.828;37.488;2022-09-16T05:08:59;13.10;99.90
22633;DHT22;11483;55.828;37.488;2022-09-16T05:11:26;13.20;99.90
22633;DHT22;11483;55.828;37.488;2022-09-16T05:13:54;12.20;99.90
22633;DHT22;11483;55.828;37.488;2022-09-16T05:16:21;13.10;99.90
22633;DHT22;11483;55.828;37.488;2022-09-16T05:18:49;13.10;99.90
22633;DHT22;11483;55.828;37.488;2022-09-16T05:21:18;13.00;99.90
22633;DHT22;11483;55.828;37.488;2022-09-16T05:23:44;13.10;99.90
22633;DHT22;11483;55.828;37.488;2022-09-16T05:26:19;13.20;99.90
22633;DHT22;11483;55.828;37.488;2022-09-16T05:28:46;13.20;99.90
22633;DHT22;11483;55.828;37.488;2022-09-16T05:31:19;13.10;99.90
22633;DHT22;11483;55.828;37.488;2022-09-16T05:33:56;13.10;99.90
22633;DHT22;11483;55.828;37.488;2022-09-16T05:36:23;13.20;99.90
22633;DHT22;11483;55.828;37.488;2022-09-16T05:38:49;13.20;99.90
22633;DHT22;11483;55.828;37.488;2022-09-16T05:41:15;13.30;99.90
22633;DHT22;11483;55.828;37.488;2022-09-16T05:43:41;13.40;99.90
22633;DHT22;11483;55.828;37.488;2022-09-16T05:46:07;13.50;99.90
22633;DHT22;11483;55.828;37.488;2022-09-16T05:48:34;13.50;99.90
22633;DHT22;11483;55.828;37.488;2022-09-16T05:51:05;13.60;99.90
22633;DHT22;11483;55.828;37.488;2022-09-16T05:53:32;13.70;99.90
22633;DHT22;11483;55.828;37.488;2022-09-16T05:56:02;13.80;99.90
22633;DHT22;11483;55.828;37.488;2022-09-16T05:58:29;13.70;99.90
22633;DHT22;11483;55.828;37.488;2022-09-16T06:01:03;13.70;99.90
22633;DHT22;11483;55.828;37.488;2022-09-16T06:03:31;13.80;99.90
22633;DHT22;11483;55.828;37.488;2022-09-16T06:06:17;13.80;99.90
22633;DHT22;11483;55.828;37.488;2022-09-16T06:08:44;13.80;99.90
22633;DHT22;11483;55.828;37.488;2022-09-16T06:11:10;13.80;99.90
22633;DHT22;11483;55.828;37.488;2022-09-16T06:13:37;13.90;99.90
22633;DHT22;11483;55.828;37.488;2022-09-16T06:16:04;13.90;99.90
22633;DHT22;11483;55.828;37.488;2022-09-16T06:18:31;14.00;99.90
22633;DHT22;11483;55.828;37.488;2022-09-16T06:21:03;13.90;99.90
22633;DHT22;11483;55.828;37.488;2022-09-16T06:23:29;14.00;99.90
22633;DHT22;11483;55.828;37.488;2022-09-16T06:26:04;14.10;99.90
22633;DHT22;11483;55.828;37.488;2022-09-16T06:28:31;14.10;99.90
22633;DHT22;11483;55.828;37.488;2022-09-16T06:31:02;14.20;99.90
22633;DHT22;11483;55.828;37.488;2022-09-16T06:33:28;14.40;99.90
22633;DHT22;11483;55.828;37.488;2022-09-16T06:35:54;14.40;99.90
22633;DHT22;11483;55.828;37.488;2022-09-16T06:38:21;14.50;99.90
22633;DHT22;11483;55.828;37.488;2022-09-16T06:40:47;14.60;99.90
22633;DHT22;11483;55.828;37.488;2022-09-16T06:43:13;14.80;99.90
22633;DHT22;11483;55.828;37.488;2022-09-16T06:45:39;14.90;99.90
22633;DHT22;11483;55.828;37.488;2022-09-16T06:48:05;15.00;99.90
22633;DHT22;11483;55.828;37.488;2022-09-16T06:50:31;15.10;99.90
22633;DHT22;11483;55.828;37.488;2022-09-16T06:52:56;15.10;99.90
22633;DHT22;11483;55.828;37.488;2022-09-16T06:55:22;15.20;99.90
22633;DHT22;11483;55.828;37.488;2022-09-16T06:57:48;15.20;99.90
22633;DHT22;11483;55.828;37.488;2022-09-16T07:00:13;15.20;99.90
22633;DHT22;11483;55.828;37.488;2022-09-16T07:02:39;15.20;99.90
22633;DHT22;11483;55.828;37.488;2022-09-16T07:05:05;15.30;99.90
22633;DHT22;11483;55.828;37.488;2022-09-16T07:07:31;15.30;99.90
22633;DHT22;11483;55.828;37.488;2022-09-16T07:09:58;15.40;99.90
22633;DHT22;11483;55.828;37.488;2022-09-16T07:12:24;15.50;99.90
22633;DHT22;11483;55.828;37.488;2022-09-16T07:14:49;15.60;99.90
22633;DHT22;11483;55.828;37.488;2022-09-16T07:17:15;15.80;99.90
22633;DHT22;11483;55.828;37.488;2022-09-16T07:19:41;16.00;99.90
22633;DHT22;11483;55.828;37.488;2022-09-16T07:22:06;16.10;99.90
22633;DHT22;11483;55.828;37.488;2022-09-16T07:24:32;16.00;99.90
22633;DHT22;11483;55.828;37.488;2022-09-16T07:26:58;16.10;99.90
22633;DHT22;11483;55.828;37.488;2022-09-16T07:29:24;16.20;99.90
22633;DHT22;11483;55.828;37.488;2022-09-16T07:31:49;16.10;99.90
22633;DHT22;11483;55.828;37.488;2022-09-16T07:34:15;16.00;99.90
22633;DHT22;11483;55.828;37.488;2022-09-16T07:36:43;15.90;99.90
22633;DHT22;11483;55.828;37.488;2022-09-16T07:39:09;15.80;99.90
22633;DHT22;11483;55.828;37.488;2022-09-16T07:41:36;15.70;99.90
22633;DHT22;11483;55.828;37.488;2022-09-16T07:44:02;15.80;99.90
22633;DHT22;11483;55.828;37.488;2022-09-16T07:46:29;15.80;99.90
22633;DHT22;11483;55.828;37.488;2022-09-16T07:48:56;16.10;99.90
22633;DHT22;11483;55.828;37.488;2022-09-16T07:51:23;16.50;99.90
22633;DHT22;11483;55.828;37.488;2022-09-16T07:53:52;16.80;99.90
22633;DHT22;11483;55.828;37.488;2022-09-16T07:56:20;17.10;99.90
22633;DHT22;11483;55.828;37.488;2022-09-16T07:58:47;17.40;99.90
22633;DHT22;11483;55.828;37.488;2022-09-16T08:01:13;17.50;99.90
22633;DHT22;11483;55.828;37.488;2022-09-16T08:03:40;17.50;99.90
22633;DHT22;11483;55.828;37.488;2022-09-16T08:06:07;17.40;99.90
22633;DHT22;11483;55.828;37.488;2022-09-16T08:08:33;17.40;99.90
22633;DHT22;11483;55.828;37.488;2022-09-16T08:10:59;17.30;99.90
22633;DHT22;11483;55.828;37.488;2022-09-16T08:13:25;17.30;99.90
22633;DHT22;11483;55.828;37.488;2022-09-16T08:15:52;17.40;99.90
22633;DHT22;11483;55.828;37.488;2022-09-16T08:18:17;17.60;99.90
22633;DHT22;11483;55.828;37.488;2022-09-16T08:20:43;18.10;99.90
22633;DHT22;11483;55.828;37.488;2022-09-16T08:23:11;18.50;99.90
22633;DHT22;11483;55.828;37.488;2022-09-16T08:25:39;18.90;99.90
22633;DHT22;11483;55.828;37.488;2022-09-16T08:28:10;19.70;99.90
22633;DHT22;11483;55.828;37.488;2022-09-16T08:30:36;20.90;99.90
22633;DHT22;11483;55.828;37.488;2022-09-16T08:33:02;21.20;99.90
22633;DHT22;11483;55.828;37.488;2022-09-16T08:35:27;21.20;99.90
22633;DHT22;11483;55.828;37.488;2022-09-16T08:37:53;20.80;99.90
22633;DHT22;11483;55.828;37.488;2022-09-16T08:40:21;20.60;99.90
22633;DHT22;11483;55.828;37.488;2022-09-16T08:48:01;21.40;99.90
22633;DHT22;11483;55.828;37.488;2022-09-16T08:50:37;20.90;99.90
22633;DHT22;11483;55.828;37.488;2022-09-16T08:53:10;19.80;99.90
22633;DHT22;11483;55.828;37.488;2022-09-16T08:55:40;19.60;99.90
22633;DHT22;11483;55.828;37.488;2022-09-16T09:00:45;19.10;99.90
22633;DHT22;11483;55.828;37.488;2022-09-16T09:05:52;18.70;99.90
22633;DHT22;11483;55.828;37.488;2022-09-16T09:10:48;18.70;99.90
22633;DHT22;11483;55.828;37.488;2022-09-16T09:18:48;18.60;99.90
22633;DHT22;11483;55.828;37.488;2022-09-16T09:26:37;19.80;99.90
22633;DHT22;11483;55.828;37.488;2022-09-16T09:46:06;19.30;99.90
22633;DHT22;11483;55.828;37.488;2022-09-16T09:48:39;19.20;99.90
22633;DHT22;11483;55.828;37.488;2022-09-16T09:51:19;19.30;99.90
22633;DHT22;11483;55.828;37.488;2022-09-16T09:53:48;19.20;99.90
22633;DHT22;11483;55.828;37.488;2022-09-16T09:56:33;19.10;99.90
22633;DHT22;11483;55.828;37.488;2022-09-16T09:59:24;18.70;99.90
22633;DHT22;11483;55.828;37.488;2022-09-16T10:01:55;18.70;99.90
22633;DHT22;11483;55.828;37.488;2022-09-16T10:04:22;18.60;99.90
22633;DHT22;11483;55.828;37.488;2022-09-16T10:06:49;18.50;99.90
22633;DHT22;11483;55.828;37.488;2022-09-16T10:09:17;18.40;99.90
22633;DHT22;11483;55.828;37.488;2022-09-16T10:11:47;18.60;99.90
22633;DHT22;11483;55.828;37.488;2022-09-16T10:14:31;18.70;99.90
22633;DHT22;11483;55.828;37.488;2022-09-16T10:17:03;18.80;99.90
22633;DHT22;11483;55.828;37.488;2022-09-16T10:19:34;18.70;99.90
22633;DHT22;11483;55.828;37.488;2022-09-16T10:22:10;18.60;99.90
22633;DHT22;11483;55.828;37.488;2022-09-16T10:24:37;18.50;99.90
22633;DHT22;11483;55.828;37.488;2022-09-16T10:27:20;18.50;99.90
22633;DHT22;11483;55.828;37.488;2022-09-16T10:29:47;18.40;99.90
22633;DHT22;11483;55.828;37.488;2022-09-16T10:32:17;18.40;99.90
22633;DHT22;11483;55.828;37.488;2022-09-16T10:34:44;18.30;99.90
22633;DHT22;11483;55.828;37.488;2022-09-16T10:39:59;18.30;99.90
22633;DHT22;11483;55.828;37.488;2022-09-16T10:42:26;18.30;99.90
22633;DHT22;11483;55.828;37.488;2022-09-16T10:47:29;18.80;99.90
22633;DHT22;11483;55.828;37.488;2022-09-16T10:50:01;18.20;99.90
22633;DHT22;11483;55.828;37.488;2022-09-16T10:52:40;18.10;99.90
22633;DHT22;11483;55.828;37.488;2022-09-16T10:55:29;18.00;99.90
22633;DHT22;11483;55.828;37.488;2022-09-16T10:58:16;18.00;99.90
22633;DHT22;11483;55.828;37.488;2022-09-16T11:03:42;17.80;99.90
22633;DHT22;11483;55.828;37.488;2022-09-16T11:22:46;17.50;99.90
22633;DHT22;11483;55.828;37.488;2022-09-16T11:28:07;17.20;99.90
22633;DHT22;11483;55.828;37.488;2022-09-16T11:30:39;17.20;99.90
22633;DHT22;11483;55.828;37.488;2022-09-16T11:33:22;17.10;99.90
22633;DHT22;11483;55.828;37.488;2022-09-16T11:38:58;17.00;99.90
22633;DHT22;11483;55.828;37.488;2022-09-16T11:44:09;17.00;99.90
22633;DHT22;11483;55.828;37.488;2022-09-16T11:46:50;17.00;99.90
22633;DHT22;11483;55.828;37.488;2022-09-16T11:52:00;17.00;99.90
22633;DHT22;11483;55.828;37.488;2022-09-16T11:57:10;17.00;99.90
22633;DHT22;11483;55.828;37.488;2022-09-16T11:59:47;17.00;99.90
22633;DHT22;11483;55.828;37.488;2022-09-16T12:04:52;17.10;99.90
22633;DHT22;11483;55.828;37.488;2022-09-16T12:12:22;17.30;99.90
22633;DHT22;11483;55.828;37.488;2022-09-16T12:14:56;17.40;99.90
22633;DHT22;11483;55.828;37.488;2022-09-16T12:17:30;17.30;99.90
22633;DHT22;11483;55.828;37.488;2022-09-16T12:20:21;17.30;99.90
22633;DHT22;11483;55.828;37.488;2022-09-16T12:23:01;17.20;99.90
22633;DHT22;11483;55.828;37.488;2022-09-16T12:25:59;17.20;99.90
22633;DHT22;11483;55.828;37.488;2022-09-16T12:31:14;17.10;99.90
22633;DHT22;11483;55.828;37.488;2022-09-16T12:34:09;17.00;99.90
22633;DHT22;11483;55.828;37.488;2022-09-16T12:36:38;17.00;99.90
22633;DHT22;11483;55.828;37.488;2022-09-16T12:39:09;16.90;99.90
22633;DHT22;11483;55.828;37.488;2022-09-16T12:41:57;16.80;99.90
22633;DHT22;11483;55.828;37.488;2022-09-16T12:58:45;16.40;99.90
22633;DHT22;11483;55.828;37.488;2022-09-16T13:04:11;16.20;99.90
22633;DHT22;11483;55.828;37.488;2022-09-16T13:06:47;16.00;99.90
22633;DHT22;11483;55.828;37.488;2022-09-16T13:11:50;15.90;99.90
22633;DHT22;11483;55.828;37.488;2022-09-16T13:14:19;15.80;99.90
22633;DHT22;11483;55.828;37.488;2022-09-16T13:16:51;15.70;99.90
22633;DHT22;11483;55.828;37.488;2022-09-16T13:19:33;15.60;99.90
22633;DHT22;11483;55.828;37.488;2022-09-16T13:24:41;15.60;99.90
22633;DHT22;11483;55.828;37.488;2022-09-16T13:37:42;15.60;99.90
22633;DHT22;11483;55.828;37.488;2022-09-16T13:40:15;15.50;99.90
22633;DHT22;11483;55.828;37.488;2022-09-16T13:42:41;15.40;99.90
22633;DHT22;11483;55.828;37.488;2022-09-16T13:47:51;15.20;99.90
22633;DHT22;11483;55.828;37.488;2022-09-16T13:50:20;15.20;99.90
22633;DHT22;11483;55.828;37.488;2022-09-16T13:52:49;15.20;99.90
22633;DHT22;11483;55.828;37.488;2022-09-16T13:55:23;15.10;99.90
22633;DHT22;11483;55.828;37.488;2022-09-16T13:57:54;15.10;99.90
22633;DHT22;11483;55.828;37.488;2022-09-16T14:00:27;15.00;99.90
22633;DHT22;11483;55.828;37.488;2022-09-16T14:03:18;14.90;99.90
22633;DHT22;11483;55.828;37.488;2022-09-16T14:11:12;14.50;99.90
22633;DHT22;11483;55.828;37.488;2022-09-16T14:13:43;15.40;99.90
22633;DHT22;11483;55.828;37.488;2022-09-16T14:16:19;14.30;99.90
22633;DHT22;11483;55.828;37.488;2022-09-16T14:18:51;14.20;99.90
22633;DHT22;11483;55.828;37.488;2022-09-16T14:21:19;14.20;99.90
22633;DHT22;11483;55.828;37.488;2022-09-16T14:23:45;14.30;99.90
22633;DHT22;11483;55.828;37.488;2022-09-16T14:26:11;14.20;99.90
22633;DHT22;11483;55.828;37.488;2022-09-16T14:28:38;14.20;99.90
22633;DHT22;11483;55.828;37.488;2022-09-16T14:31:15;14.10;99.90
22633;DHT22;11483;55.828;37.488;2022-09-16T14:33:53;14.10;99.90
22633;DHT22;11483;55.828;37.488;2022-09-16T14:36:25;14.10;99.90
22633;DHT22;11483;55.828;37.488;2022-09-16T14:44:07;14.00;99.90
22633;DHT22;11483;55.828;37.488;2022-09-16T14:46:41;13.90;99.90
22633;DHT22;11483;55.828;37.488;2022-09-16T14:49:12;13.90;99.90
22633;DHT22;11483;55.828;37.488;2022-09-16T14:51:50;13.90;99.90
22633;DHT22;11483;55.828;37.488;2022-09-16T14:54:21;13.80;99.90
22633;DHT22;11483;55.828;37.488;2022-09-16T14:56:55;13.80;99.90
22633;DHT22;11483;55.828;37.488;2022-09-16T14:59:31;13.70;99.90
22633;DHT22;11483;55.828;37.488;2022-09-16T15:05:26;13.60;99.90
22633;DHT22;11483;55.828;37.488;2022-09-16T15:10:36;13.40;99.90
22633;DHT22;11483;55.828;37.488;2022-09-16T15:13:10;13.40;99.90
22633;DHT22;11483;55.828;37.488;2022-09-16T15:15:45;13.40;99.90
22633;DHT22;11483;55.828;37.488;2022-09-16T15:18:27;13.40;99.90
22633;DHT22;11483;55.828;37.488;2022-09-16T15:21:18;13.40;99.90
22633;DHT22;11483;55.828;37.488;2022-09-16T15:23:49;13.40;99.90
22633;DHT22;11483;55.828;37.488;2022-09-16T15:26:18;13.30;99.90
22633;DHT22;11483;55.828;37.488;2022-09-16T15:29:01;13.30;99.90
22633;DHT22;11483;55.828;37.488;2022-09-16T15:31:36;13.30;99.90
22633;DHT22;11483;55.828;37.488;2022-09-16T15:34:04;13.30;99.90
22633;DHT22;11483;55.828;37.488;2022-09-16T15:36:35;13.30;99.90
22633;DHT22;11483;55.828;37.488;2022-09-16T15:39:01;13.20;99.90
22633;DHT22;11483;55.828;37.488;2022-09-16T15:41:27;13.20;99.90
22633;DHT22;11483;55.828;37.488;2022-09-16T15:43:53;13.10;99.90
22633;DHT22;11483;55.828;37.488;2022-09-16T15:46:21;13.10;99.90
22633;DHT22;11483;55.828;37.488;2022-09-16T15:48:58;13.00;99.90
22633;DHT22;11483;55.828;37.488;2022-09-16T15:51:30;13.10;99.90
22633;DHT22;11483;55.828;37.488;2022-09-16T15:54:07;13.10;99.90
22633;DHT22;11483;55.828;37.488;2022-09-16T15:56:38;13.10;99.90
22633;DHT22;11483;55.828;37.488;2022-09-16T15:59:19;13.10;99.90
22633;DHT22;11483;55.828;37.488;2022-09-16T16:01:47;13.20;99.90
22633;DHT22;11483;55.828;37.488;2022-09-16T16:04:20;13.10;99.90
22633;DHT22;11483;55.828;37.488;2022-09-16T16:09:32;13.10;99.90
22633;DHT22;11483;55.828;37.488;2022-09-16T16:12:03;13.20;99.90
22633;DHT22;11483;55.828;37.488;2022-09-16T16:14:31;13.10;99.90
22633;DHT22;11483;55.828;37.488;2022-09-16T16:17:02;13.10;99.90
22633;DHT22;11483;55.828;37.488;2022-09-16T16:19:29;13.10;99.90
22633;DHT22;11483;55.828;37.488;2022-09-16T16:21:55;13.10;99.90
22633;DHT22;11483;55.828;37.488;2022-09-16T16:24:25;13.20;99.90
22633;DHT22;11483;55.828;37.488;2022-09-16T16:26:52;13.20;99.90
22633;DHT22;11483;55.828;37.488;2022-09-16T16:29:18;13.20;99.90
22633;DHT22;11483;55.828;37.488;2022-09-16T16:32:02;13.20;99.90
22633;DHT22;11483;55.828;37.488;2022-09-16T16:34:40;13.20;99.90
22633;DHT22;11483;55.828;37.488;2022-09-16T16:37:06;13.20;99.90
22633;DHT22;11483;55.828;37.488;2022-09-16T16:39:33;13.20;99.90
22633;DHT22;11483;55.828;37.488;2022-09-16T16:42:00;13.20;99.90
22633;DHT22;11483;55.828;37.488;2022-09-16T16:44:27;13.10;99.90
22633;DHT22;11483;55.828;37.488;2022-09-16T16:46:54;13.20;99.90
22633;DHT22;11483;55.828;37.488;2022-09-16T16:49:21;13.30;99.90
22633;DHT22;11483;55.828;37.488;2022-09-16T16:51:48;13.30;99.90
22633;DHT22;11483;55.828;37.488;2022-09-16T16:54:16;13.30;99.90
22633;DHT22;11483;55.828;37.488;2022-09-16T16:56:47;13.50;99.90
22633;DHT22;11483;55.828;37.488;2022-09-16T16:59:14;13.40;99.90
22633;DHT22;11483;55.828;37.488;2022-09-16T17:01:41;13.40;99.90
22633;DHT22;11483;55.828;37.488;2022-09-16T17:04:10;13.40;99.90
22633;DHT22;11483;55.828;37.488;2022-09-16T17:06:37;13.40;99.90
22633;DHT22;11483;55.828;37.488;2022-09-16T17:09:04;13.40;99.90
22633;DHT22;11483;55.828;37.488;2022-09-16T17:11:33;13.40;99.90
22633;DHT22;11483;55.828;37.488;2022-09-16T17:14:05;13.40;99.90
22633;DHT22;11483;55.828;37.488;2022-09-16T17:16:32;13.50;99.90
22633;DHT22;11483;55.828;37.488;2022-09-16T17:19:00;13.50;99.90
22633;DHT22;11483;55.828;37.488;2022-09-16T17:21:29;13.50;99.90
22633;DHT22;11483;55.828;37.488;2022-09-16T17:23:56;13.50;99.90
22633;DHT22;11483;55.828;37.488;2022-09-16T17:26:22;13.50;99.90
22633;DHT22;11483;55.828;37.488;2022-09-16T17:28:49;13.60;99.90
22633;DHT22;11483;55.828;37.488;2022-09-16T17:31:18;13.60;99.90
22633;DHT22;11483;55.828;37.488;2022-09-16T17:33:51;13.70;99.90
22633;DHT22;11483;55.828;37.488;2022-09-16T17:36:17;13.70;99.90
22633;DHT22;11483;55.828;37.488;2022-09-16T17:38:45;13.80;99.90
22633;DHT22;11483;55.828;37.488;2022-09-16T17:41:12;14.00;99.90
22633;DHT22;11483;55.828;37.488;2022-09-16T17:43:38;14.00;99.90
22633;DHT22;11483;55.828;37.488;2022-09-16T17:46:06;14.00;99.90
22633;DHT22;11483;55.828;37.488;2022-09-16T17:48:32;13.90;99.90
22633;DHT22;11483;55.828;37.488;2022-09-16T17:51:01;13.90;99.90
22633;DHT22;11483;55.828;37.488;2022-09-16T17:53:27;13.90;99.90
22633;DHT22;11483;55.828;37.488;2022-09-16T17:56:00;13.90;99.90
22633;DHT22;11483;55.828;37.488;2022-09-16T17:58:25;13.90;99.90
22633;DHT22;11483;55.828;37.488;2022-09-16T18:00:51;13.90;99.90
22633;DHT22;11483;55.828;37.488;2022-09-16T18:03:17;13.90;99.90
22633;DHT22;11483;55.828;37.488;2022-09-16T18:05:43;14.00;99.90
22633;DHT22;11483;55.828;37.488;2022-09-16T18:08:09;14.00;99.90
22633;DHT22;11483;55.828;37.488;2022-09-16T18:10:35;14.00;99.90
22633;DHT22;11483;55.828;37.488;2022-09-16T18:13:00;12.90;99.90
22633;DHT22;11483;55.828;37.488;2022-09-16T18:15:27;13.90;99.90
22633;DHT22;11483;55.828;37.488;2022-09-16T18:17:54;13.90;99.90
22633;DHT22;11483;55.828;37.488;2022-09-16T18:20:19;13.90;99.90
22633;DHT22;11483;55.828;37.488;2022-09-16T18:22:45;13.80;99.90
22633;DHT22;11483;55.828;37.488;2022-09-16T18:25:13;13.80;99.90
22633;DHT22;11483;55.828;37.488;2022-09-16T18:27:38;13.80;99.90
22633;DHT22;11483;55.828;37.488;2022-09-16T18:30:05;13.80;99.90
22633;DHT22;11483;55.828;37.488;2022-09-16T18:32:30;13.80;99.90
22633;DHT22;11483;55.828;37.488;2022-09-16T18:34:56;13.80;99.90
22633;DHT22;11483;55.828;37.488;2022-09-16T18:37:22;13.80;99.90
22633;DHT22;11483;55.828;37.488;2022-09-16T18:39:48;13.80;99.90
22633;DHT22;11483;55.828;37.488;2022-09-16T18:42:14;13.70;99.90
22633;DHT22;11483;55.828;37.488;2022-09-16T18:44:40;13.80;99.90
22633;DHT22;11483;55.828;37.488;2022-09-16T18:47:06;13.80;99.90